Abilene, Texas
Current Conditions -  °F | °C
As of 2:52 PM on Friday 19 Dec 2014 (Local Time) from KABI Reporting Station
Overcast Overcast  
Wind Chill:   Ceiling: 1400
Heat Index:   Visibility: 10mi
Dew Point:   Wind: 6mph
Humidity: 77%   Direction: 350°N
Pressure: 30.16"   Gusts: NA
Location:  32.45°N, 99.74°W
Report Text: KABI 192052Z 35005KT 10SM OVC014 08/04 A3016 RMK AO2 SLP210 T00830044 56011
Loading
Personal Weather Stations






























Interactive Weather Map New forecast layout! Learn more

10-Day Weather Forecast

Advertisements
Track Severe Weather on mobile